• Join FlightAware (Why Join?)
  • Login
  • US Flag 
06:36PM EDT


 

Airport Tracker/Info


-or-


 

Live Flight TrackerFlight Track Log ✈ SWA1435 ✈ 30-Apr-2013 ✈ KDAL - KSTL

Flight Track Log - Related Links

Times and Time Zones

All times are in EDT time to prevent confusion due to time zone crossing. See the SWA1435 flight status page for this flight to view local times or setup timezone preferences in your user account.

Time Position Orientation Groundspeed Altitude Reporting Facility
EDT Latitude Longitude Course Direction KTS MPH feet Rate Location/Type
07:10AM 32.8333 -96.8333 16° North 153 176 1,300  Level Dallas / Fort Worth TRACON
07:12AM 32.8000 -96.7667 121° Southeast 210 242 4,300 2,460 Climbing Dallas / Fort Worth TRACON
07:12AM 32.8000 -96.7333 90° East 259 298 5,800 2,940 Climbing Dallas / Fort Worth TRACON
07:13AM 32.9000 -96.7333 360° North 297 342 9,300 3,000 Climbing Dallas / Fort Worth TRACON
07:15AM 33.0467 -96.7617 351° North 357 411 14,500 2,700 Climbing Fort Worth Center
07:16AM 33.4007 -96.5553 16° North  Level FlightAware Approximate
07:16AM 33.1322 -96.7733 353° North 335 386 16,800  Level Fort Worth Center
07:17AM 33.2411 -96.7925 352° North 353 406 19,600 2,460 Climbing Fort Worth Center
07:18AM 33.3369 -96.8067 353° North 372 428 21,800 2,100 Climbing Fort Worth Center
07:19AM 33.4453 -96.7561 21° North 366 421 23,800 2,040 Climbing Fort Worth Center
07:20AM 33.5347 -96.6808 35° Northeast 387 445 25,900 2,040 Climbing Fort Worth Center
07:21AM 33.6303 -96.6028 34° Northeast 408 470 27,900 1,800 Climbing Fort Worth Center
07:22AM 33.7258 -96.5244 34° Northeast 413 475 29,500 1,380 Climbing Fort Worth Center
07:23AM 33.8231 -96.4408 36° Northeast 420 483 30,700 1,500 Climbing Fort Worth Center
07:24AM 33.9186 -96.3597 35° Northeast 420 483 32,500 1,680 Climbing Fort Worth Center
07:25AM 34.0200 -96.2758 34° Northeast 426 490 34,100 1,320 Climbing Fort Worth Center
07:26AM 34.1153 -96.1969 34° Northeast 426 490 35,200 1,200 Climbing Fort Worth Center
07:27AM 34.2125 -96.1125 36° Northeast 420 483 36,500 900 Climbing Fort Worth Center
07:28AM 34.3119 -96.0306 34° Northeast 420 483 37,000 240 Climbing Fort Worth Center
07:29AM 34.4089 -95.9486 35° Northeast 426 490 37,000  Level Fort Worth Center
07:30AM 34.5081 -95.8611 36° Northeast 426 490 37,000  Level Fort Worth Center
07:31AM 34.6072 -95.7761 35° Northeast 426 490 37,000  Level Fort Worth Center
07:32AM 34.7061 -95.6933 35° Northeast 426 490 37,000  Level Fort Worth Center
07:33AM 34.8031 -95.6106 35° Northeast 421 484 37,000  Level Fort Worth Center
07:35AM 34.9822 -95.4589 35° Northeast 418 481 37,000  Level Memphis Center
07:36AM 35.0794 -95.3786 34° Northeast 418 481 37,000  Level Memphis Center
07:37AM 35.1744 -95.2953 36° Northeast 418 481 37,000  Level Memphis Center
07:38AM 35.2675 -95.2117 36° Northeast 418 481 37,000  Level Memphis Center
07:39AM 35.3625 -95.1308 35° Northeast 418 481 37,000  Level Memphis Center
07:40AM 35.4553 -95.0494 36° Northeast 418 481 37,000  Level Memphis Center
07:41AM 35.5500 -94.9656 36° Northeast 418 481 37,000  Level Memphis Center
07:42AM 35.6450 -94.8814 36° Northeast 418 481 37,000  Level Memphis Center
07:43AM 35.7419 -94.7969 35° Northeast 418 481 37,000  Level Memphis Center
07:44AM 35.8367 -94.7125 36° Northeast 418 481 37,000  Level Memphis Center
07:45AM 35.9356 -94.6256 35° Northeast 418 481 37,000  Level Memphis Center
07:46AM 36.0322 -94.5408 35° Northeast 418 481 37,000  Level Memphis Center
07:47AM 36.1289 -94.4531 36° Northeast 418 481 37,000  Level Memphis Center
07:48AM 36.2256 -94.3681 35° Northeast 418 481 37,000  Level Memphis Center
07:50AM 36.4544 -94.1608 36° Northeast 425 489 37,000  Level Kansas City Center
07:51AM 36.5492 -94.0747 36° Northeast 423 487 37,000  Level Kansas City Center
07:52AM 36.6436 -93.9897 36° Northeast 421 484 37,000  Level Kansas City Center
07:53AM 36.7383 -93.9039 36° Northeast 421 484 37,000  Level Kansas City Center
07:54AM 36.8319 -93.8178 36° Northeast 420 483 37,000  Level Kansas City Center
07:55AM 36.9278 -93.7289 37° Northeast 416 479 37,000 -300 Level Kansas City Center
07:56AM 37.0214 -93.6425 36° Northeast 417 480 36,400 -840 Descending Kansas City Center
07:57AM 37.1364 -93.5369 36° Northeast 423 487 35,300 -1,140 Descending Kansas City Center
07:58AM 37.2275 -93.4525 36° Northeast 413 475 34,200 -1,020 Descending Kansas City Center
08:00AM 37.3192 -93.3675 36° Northeast 408 470 33,300 -600 Descending Kansas City Center
08:01AM 37.4114 -93.2744 39° Northeast 416 479 33,000 -180 Descending Kansas City Center
08:02AM 37.4956 -93.1717 44° Northeast 421 484 33,000  Level Kansas City Center
08:03AM 37.5817 -93.0711 43° Northeast 420 483 33,000  Level Kansas City Center
08:04AM 37.6672 -92.9714 43° Northeast 419 482 33,000  Level Kansas City Center
08:05AM 37.7533 -92.8708 43° Northeast 418 481 33,000  Level Kansas City Center
08:06AM 37.8383 -92.7708 43° Northeast 416 479 33,000  Level Kansas City Center
08:07AM 37.9269 -92.6567 45° Northeast 415 478 33,000  Level Kansas City Center
08:08AM 37.9897 -92.5350 57° Northeast 412 474 33,000  Level Kansas City Center
08:09AM 38.0547 -92.4164 55° Northeast 411 473 33,000  Level Kansas City Center
08:10AM 38.1206 -92.2956 55° Northeast 416 479 33,000 -60 Level Kansas City Center
08:11AM 38.1853 -92.1733 56° Northeast 417 480 32,900 -1,680 Descending Kansas City Center
08:12AM 38.2492 -92.0536 56° Northeast 411 473 29,600 -2,880 Descending Kansas City Center
08:13AM 38.3150 -91.9303 56° Northeast 415 478 27,000 -2,460 Descending Kansas City Center
08:14AM 38.3775 -91.8111 56° Northeast 411 473 24,600 -2,400 Descending Kansas City Center
08:15AM 38.4400 -91.6928 56° Northeast 406 467 22,200 -2,580 Descending Kansas City Center
08:16AM 38.5117 -91.5547 56° Northeast 396 456 19,400 -2,580 Descending Kansas City Center
08:17AM 38.5678 -91.4433 57° Northeast 379 436 17,000 -2,280 Descending Kansas City Center
08:18AM 38.6219 -91.3411 56° Northeast 365 420 14,800 -2,100 Descending Kansas City Center
08:19AM 38.6767 -91.2403 55° Northeast 350 403 12,700 -2,160 Descending Kansas City Center
08:20AM 38.7161 -91.1297 65° Northeast 345 397 10,400 -1,680 Descending Kansas City Center
08:21AM 38.7489 -91.0272 68° East 321 369 9,400 -1,320 Descending Kansas City Center
08:22AM 38.7792 -90.9317 68° East 298 343 7,700 -1,740 Descending Kansas City Center
08:23AM 38.7989 -90.8314 76° East 292 336 5,900 -1,740 Descending Kansas City Center
08:24AM 38.8172 -90.7308 77° East 290 334 4,200 -1,260 Descending Kansas City Center
08:25AM 38.8264 -90.6292 83° East 288 331 3,400 -660 Descending Kansas City Center
08:26AM 38.8067 -90.5139 102° East 278 320 2,900 -660 Descending Kansas City Center
08:27AM 38.7908 -90.4464 107° East 223 257 2,100 -960 Descending Kansas City Center
08:28AM 38.7647 -90.4011 126° Southeast 181 208 1,000 -840 Descending Kansas City Center
08:29AM 38.7464 -90.3636 122° Southeast 164 189 500 -540 Descending Kansas City Center
08:31AM 38.7487 -90.3700 270° West  Level Estimated